createdAt,value
2019-01-21T00:01:05.568Z,29.72
2019-01-21T00:03:34.686Z,26.73
2019-01-21T00:06:03.748Z,25.82
2019-01-21T00:08:32.959Z,27.07
2019-01-21T00:11:02.110Z,27.00
2019-01-21T00:13:31.212Z,26.33
2019-01-21T00:16:00.301Z,27.10
2019-01-21T00:18:29.384Z,27.45
2019-01-21T00:20:58.442Z,26.68
2019-01-21T00:23:27.523Z,29.25
2019-01-21T00:25:56.596Z,35.25
2019-01-21T00:28:25.689Z,34.90
2019-01-21T00:30:54.779Z,35.70
2019-01-21T00:33:23.888Z,46.33
2019-01-21T00:35:52.963Z,35.17
2019-01-21T00:38:22.031Z,29.00
2019-01-21T00:40:51.115Z,26.12
2019-01-21T00:43:20.165Z,29.20
2019-01-21T00:45:49.260Z,30.60
2019-01-21T00:48:18.312Z,30.32
2019-01-21T00:50:47.398Z,31.90
2019-01-21T00:53:16.455Z,32.05
2019-01-21T00:55:45.779Z,32.30
2019-01-21T00:58:14.881Z,32.45
2019-01-21T01:00:44.006Z,32.00
2019-01-21T01:03:13.057Z,30.15
2019-01-21T01:05:42.142Z,30.77
2019-01-21T01:08:11.200Z,29.18
2019-01-21T01:10:40.286Z,29.40
2019-01-21T01:13:09.384Z,30.82
2019-01-21T01:15:38.455Z,28.67
2019-01-21T01:18:07.546Z,27.22
2019-01-21T01:20:36.635Z,27.13
2019-01-21T01:23:05.739Z,26.95
2019-01-21T01:25:35.028Z,26.33
2019-01-21T01:28:04.124Z,25.72
2019-01-21T01:30:33.193Z,26.00
2019-01-21T01:33:02.242Z,25.27
2019-01-21T01:35:31.315Z,25.65
2019-01-21T01:38:00.340Z,25.77
2019-01-21T01:40:29.439Z,26.02
2019-01-21T01:42:58.473Z,25.17
2019-01-21T01:45:28.518Z,25.95
2019-01-21T01:48:00.000Z,25.62
2019-01-21T01:50:29.060Z,25.30
2019-01-21T01:52:58.182Z,26.17
2019-01-21T01:55:29.105Z,27.78
2019-01-21T01:57:59.675Z,27.45
2019-01-21T02:00:28.711Z,27.52
2019-01-21T02:02:57.850Z,26.85
2019-01-21T02:05:26.874Z,28.00
2019-01-21T02:07:55.931Z,26.90
2019-01-21T02:10:24.990Z,26.63
2019-01-21T02:12:54.078Z,28.10
2019-01-21T02:15:23.141Z,27.65
2019-01-21T02:17:52.462Z,27.32
2019-01-21T02:20:21.454Z,27.77
2019-01-21T02:22:52.955Z,27.40
2019-01-21T02:25:23.746Z,26.97
2019-01-21T02:28:09.921Z,26.70
2019-01-21T02:31:38.713Z,25.75
2019-01-21T02:34:29.008Z,25.12
2019-01-21T02:37:27.275Z,26.05
2019-01-21T02:40:32.422Z,25.80
2019-01-21T02:43:31.095Z,25.75
2019-01-21T02:46:21.928Z,27.58
2019-01-21T02:49:06.375Z,25.68
2019-01-21T02:52:13.267Z,28.98
2019-01-21T02:55:05.104Z,27.80
2019-01-21T02:58:12.475Z,26.82
2019-01-21T03:01:17.414Z,26.37
2019-01-21T03:04:10.039Z,26.60
2019-01-21T03:07:10.055Z,28.10
2019-01-21T03:10:09.563Z,27.52
2019-01-21T03:13:22.065Z,26.97
2019-01-21T03:16:20.009Z,25.80
2019-01-21T03:19:04.018Z,25.85
2019-01-21T03:22:23.430Z,27.60
2019-01-21T03:25:32.631Z,26.93
2019-01-21T03:28:43.605Z,26.73
2019-01-21T03:31:35.642Z,27.55
2019-01-21T03:34:40.841Z,27.95
2019-01-21T03:37:44.208Z,28.52
2019-01-21T03:43:22.262Z,27.22
2019-01-21T03:46:31.086Z,26.77
2019-01-21T03:49:06.310Z,27.85
2019-01-21T03:52:19.447Z,28.60
2019-01-21T03:54:52.497Z,30.05
2019-01-21T03:57:36.679Z,28.70
2019-01-21T04:00:26.635Z,30.20
2019-01-21T04:03:41.499Z,28.98
2019-01-21T04:06:31.159Z,28.40
2019-01-21T04:09:42.263Z,28.25
2019-01-21T04:16:27.970Z,31.48
2019-01-21T04:19:21.862Z,31.73
2019-01-21T04:22:26.598Z,32.48
2019-01-21T04:25:52.072Z,32.42
2019-01-21T04:28:33.031Z,32.40
2019-01-21T04:31:42.643Z,33.80
2019-01-21T04:35:08.219Z,32.15
2019-01-21T04:38:05.277Z,32.17
2019-01-21T04:41:24.776Z,30.80
2019-01-21T04:44:32.267Z,32.25
2019-01-21T04:47:45.379Z,29.92
2019-01-21T04:50:50.990Z,30.27
2019-01-21T04:53:31.944Z,31.10
2019-01-21T04:56:36.665Z,30.72
2019-01-21T04:59:41.693Z,30.55
2019-01-21T05:03:00.933Z,29.77
2019-01-21T05:06:01.931Z,31.30
2019-01-21T05:09:20.969Z,29.10
2019-01-21T05:12:18.940Z,30.23
2019-01-21T05:15:44.381Z,31.62
2019-01-21T05:18:49.635Z,30.17
2019-01-21T05:21:55.745Z,31.45
2019-01-21T05:24:44.226Z,31.93
2019-01-21T05:28:00.268Z,31.33
2019-01-21T05:31:12.201Z,38.80
2019-01-21T05:34:55.605Z,35.58
2019-01-21T05:38:07.863Z,36.88
2019-01-21T05:41:21.543Z,36.42
2019-01-21T05:47:33.529Z,35.15
2019-01-21T05:50:24.286Z,37.35
2019-01-21T05:53:26.376Z,38.17
2019-01-21T05:56:29.112Z,38.97
2019-01-21T05:59:33.431Z,38.05
2019-01-21T06:02:22.681Z,37.40
2019-01-21T06:05:20.618Z,36.50
2019-01-21T06:08:34.594Z,35.48
2019-01-21T06:11:22.394Z,35.73
2019-01-21T06:14:31.227Z,33.90
2019-01-21T06:17:23.013Z,34.50
2019-01-21T06:20:19.293Z,33.90
2019-01-21T06:23:31.468Z,35.48
2019-01-21T06:26:32.036Z,45.13
2019-01-21T06:29:26.348Z,34.75
2019-01-21T06:32:39.399Z,34.58
2019-01-21T06:35:54.594Z,35.05
2019-01-21T06:38:53.288Z,34.58
2019-01-21T06:41:59.396Z,34.45
2019-01-21T06:45:15.509Z,36.15
2019-01-21T06:48:19.340Z,38.23
2019-01-21T06:51:31.283Z,34.73
2019-01-21T06:54:11.130Z,36.50
2019-01-21T06:57:01.288Z,37.38
2019-01-21T07:00:26.591Z,38.90
2019-01-21T07:03:36.636Z,42.03
2019-01-21T07:06:48.596Z,45.20
2019-01-21T07:09:39.835Z,45.43
2019-01-21T07:12:30.272Z,42.08
2019-01-21T07:15:33.880Z,40.70
2019-01-21T07:18:41.048Z,40.28
2019-01-21T07:21:47.304Z,42.43
2019-01-21T07:24:59.338Z,41.53
2019-01-21T07:27:37.818Z,39.80
2019-01-21T07:30:46.140Z,38.44
2019-01-21T07:34:08.241Z,37.33
2019-01-21T07:37:17.467Z,37.70
2019-01-21T07:40:25.301Z,39.33
2019-01-21T07:43:30.013Z,36.13
2019-01-21T07:46:58.411Z,37.03
2019-01-21T07:50:18.170Z,35.33
2019-01-21T07:53:31.570Z,38.67
2019-01-21T07:56:21.641Z,37.83
2019-01-21T07:59:30.442Z,39.90
2019-01-21T08:02:38.324Z,37.40
2019-01-21T08:05:47.144Z,35.68
2019-01-21T08:08:35.056Z,36.70
2019-01-21T08:11:48.472Z,35.65
2019-01-21T08:14:45.946Z,36.00
2019-01-21T08:18:00.881Z,36.17
2019-01-21T08:20:56.107Z,39.20
2019-01-21T08:23:53.709Z,38.92
2019-01-21T08:27:01.227Z,39.00
2019-01-21T08:30:26.285Z,39.00
2019-01-21T08:33:29.253Z,42.33
2019-01-21T08:36:29.418Z,40.50
2019-01-21T08:39:40.140Z,40.90
2019-01-21T08:42:25.433Z,39.67
2019-01-21T08:45:29.847Z,41.02
2019-01-21T08:48:37.218Z,39.73
2019-01-21T08:51:20.186Z,39.98
2019-01-21T08:56:44.152Z,38.88
2019-01-21T08:59:42.086Z,38.13
2019-01-21T09:02:41.237Z,40.50
2019-01-21T09:05:46.409Z,40.92
2019-01-21T09:08:48.891Z,40.50
2019-01-21T09:11:53.749Z,40.33
2019-01-21T09:14:40.176Z,40.55
2019-01-21T09:17:51.842Z,39.83
2019-01-21T09:20:57.958Z,40.40
2019-01-21T09:24:08.923Z,40.20
2019-01-21T09:26:56.938Z,39.30
2019-01-21T09:29:54.550Z,39.63
2019-01-21T09:33:03.601Z,38.35
2019-01-21T09:36:09.987Z,41.00
2019-01-21T09:39:05.719Z,39.75
2019-01-21T09:42:45.514Z,40.55
2019-01-21T09:57:28.533Z,40.78
2019-01-21T09:59:59.986Z,44.50
2019-01-21T10:02:42.142Z,42.03
2019-01-21T10:05:15.180Z,42.17
2019-01-21T10:08:36.376Z,42.62
2019-01-21T10:11:55.485Z,38.20
2019-01-21T10:15:01.404Z,38.02
2019-01-21T10:18:13.285Z,37.48
2019-01-21T10:21:29.479Z,35.73
2019-01-21T10:24:49.743Z,35.73
2019-01-21T10:28:02.852Z,36.10
2019-01-21T10:30:57.904Z,36.20
2019-01-21T10:33:54.271Z,35.80
2019-01-21T10:37:06.148Z,37.60
2019-01-21T10:40:08.178Z,37.83
2019-01-21T10:43:08.082Z,39.63
2019-01-21T10:45:58.537Z,38.42
2019-01-21T10:49:15.174Z,37.83
2019-01-21T10:52:10.868Z,37.65
2019-01-21T10:55:29.737Z,37.73
2019-01-21T10:58:10.978Z,37.28
2019-01-21T11:01:12.012Z,37.95
2019-01-21T11:04:32.031Z,36.95
2019-01-21T11:07:38.523Z,36.05
2019-01-21T11:10:19.102Z,36.30
2019-01-21T11:13:12.078Z,36.95
2019-01-21T11:16:22.212Z,37.48
2019-01-21T11:19:22.227Z,36.58
2019-01-21T11:22:20.342Z,35.98
2019-01-21T11:25:19.576Z,35.90
2019-01-21T11:28:35.898Z,34.75
2019-01-21T11:31:30.519Z,34.30
2019-01-21T11:34:32.809Z,35.45
2019-01-21T11:37:48.503Z,37.90
2019-01-21T11:40:54.700Z,35.40
2019-01-21T11:44:02.240Z,36.48
2019-01-21T11:46:56.668Z,35.43
2019-01-21T11:49:50.515Z,35.70
2019-01-21T11:52:48.899Z,36.85
2019-01-21T11:55:48.206Z,37.27
2019-01-21T11:58:47.889Z,36.48
2019-01-21T12:01:46.656Z,36.83
2019-01-21T12:04:40.544Z,36.65
2019-01-21T12:07:29.492Z,36.03
2019-01-21T12:10:45.370Z,37.48
2019-01-21T12:14:00.426Z,38.78
2019-01-21T12:16:54.438Z,37.63
2019-01-21T12:19:51.893Z,36.73
2019-01-21T12:23:01.949Z,36.68
2019-01-21T12:25:47.777Z,35.05
2019-01-21T12:28:34.654Z,34.53
2019-01-21T12:32:12.343Z,33.15
2019-01-21T12:34:52.728Z,34.40
2019-01-21T12:37:34.214Z,32.42
2019-01-21T12:40:43.510Z,34.98
2019-01-21T12:43:50.907Z,32.75
2019-01-21T12:47:01.218Z,35.10
2019-01-21T12:50:07.158Z,37.33
2019-01-21T12:52:54.606Z,34.98
2019-01-21T12:55:46.544Z,32.10
2019-01-21T12:58:34.483Z,29.07
2019-01-21T13:01:46.262Z,28.95
2019-01-21T13:05:01.474Z,28.95
2019-01-21T13:08:17.386Z,26.15
2019-01-21T13:11:10.512Z,27.30
2019-01-21T13:14:21.019Z,29.70
2019-01-21T13:17:17.482Z,29.40
2019-01-21T13:20:42.850Z,30.17
2019-01-21T13:23:45.168Z,29.18
2019-01-21T13:26:46.870Z,28.20
2019-01-21T13:29:48.653Z,30.00
2019-01-21T13:32:45.760Z,30.40
2019-01-21T13:35:49.925Z,30.43
2019-01-21T13:39:17.412Z,27.90
2019-01-21T13:42:30.243Z,27.80
2019-01-21T13:45:49.240Z,26.03
2019-01-21T13:48:46.525Z,26.73
2019-01-21T13:52:08.875Z,25.27
2019-01-21T13:54:56.689Z,26.10
2019-01-21T13:58:13.014Z,27.22
2019-01-21T14:01:23.946Z,27.37
2019-01-21T14:04:21.660Z,28.75
2019-01-21T14:07:26.475Z,28.02
2019-01-21T14:10:27.431Z,27.37
2019-01-21T14:13:19.145Z,28.02
2019-01-21T14:16:32.905Z,27.73
2019-01-21T14:22:47.263Z,27.22
2019-01-21T14:26:13.107Z,39.98
2019-01-21T14:29:01.705Z,29.98
2019-01-21T14:32:05.731Z,27.95
2019-01-21T14:35:03.676Z,25.20
2019-01-21T14:38:25.857Z,28.20
2019-01-21T14:41:34.919Z,27.48
2019-01-21T14:45:03.615Z,26.05
2019-01-21T14:51:55.434Z,25.48
2019-01-21T14:55:01.565Z,26.42
2019-01-21T14:57:52.923Z,26.33
2019-01-21T15:01:15.522Z,30.47
2019-01-21T15:07:07.294Z,25.75
2019-01-21T15:10:23.923Z,25.15
2019-01-21T15:13:24.130Z,26.10
2019-01-21T15:16:46.897Z,25.82
2019-01-21T15:20:24.363Z,26.93
2019-01-21T15:23:23.134Z,26.23
2019-01-21T15:26:28.607Z,26.73
2019-01-21T15:29:24.971Z,27.22
2019-01-21T15:32:34.739Z,26.68
2019-01-21T15:35:44.899Z,26.62
2019-01-21T15:38:34.693Z,28.62
2019-01-21T15:41:40.511Z,28.65
2019-01-21T15:44:49.329Z,28.27
2019-01-21T15:47:58.249Z,29.57
2019-01-21T15:51:19.132Z,29.35
2019-01-21T15:54:49.281Z,30.50
2019-01-21T15:57:53.731Z,30.75
2019-01-21T16:01:06.108Z,32.83
2019-01-21T16:04:09.219Z,33.60
2019-01-21T16:06:47.281Z,31.45
2019-01-21T16:09:54.714Z,33.60
2019-01-21T16:12:57.886Z,35.08
2019-01-21T16:16:17.589Z,33.00
2019-01-21T16:22:41.870Z,33.88
2019-01-21T16:25:46.650Z,35.13
2019-01-21T16:28:39.677Z,37.98
2019-01-21T16:32:30.886Z,37.40
2019-01-21T16:35:22.503Z,36.73
2019-01-21T16:41:49.491Z,39.88
2019-01-21T16:44:26.603Z,39.53
2019-01-21T16:47:05.947Z,46.00
2019-01-21T16:49:42.917Z,40.05
2019-01-21T16:52:29.507Z,41.35
2019-01-21T16:55:01.085Z,37.50
2019-01-21T16:57:30.329Z,37.63
2019-01-21T16:59:59.877Z,37.70
2019-01-21T17:02:29.097Z,37.63
2019-01-21T17:04:58.359Z,36.35
2019-01-21T17:07:27.622Z,36.98
2019-01-21T17:09:58.131Z,35.78
2019-01-21T17:12:27.348Z,36.10
2019-01-21T17:15:25.703Z,37.75
2019-01-21T17:17:56.732Z,41.20
2019-01-21T17:20:31.805Z,55.73
2019-01-21T17:23:09.266Z,43.10
2019-01-21T17:25:43.365Z,40.33
2019-01-21T17:28:18.502Z,40.55
2019-01-21T17:30:58.934Z,39.33
2019-01-21T17:34:16.786Z,42.67
2019-01-21T17:36:47.687Z,40.67
2019-01-21T17:39:23.910Z,41.63
2019-01-21T17:42:06.103Z,42.13
2019-01-21T17:44:38.428Z,44.38
2019-01-21T17:47:12.718Z,39.75
2019-01-21T17:49:44.560Z,40.10
2019-01-21T17:52:26.256Z,36.97
2019-01-21T17:55:02.662Z,35.43
2019-01-21T17:57:41.444Z,34.85
2019-01-21T18:00:15.335Z,34.50
2019-01-21T18:02:44.696Z,33.95
2019-01-21T18:05:14.079Z,41.90
2019-01-21T18:07:43.470Z,34.30
2019-01-21T18:10:13.996Z,35.00
2019-01-21T18:12:43.220Z,36.80
2019-01-21T18:15:13.018Z,36.00
2019-01-21T18:17:42.379Z,38.67
2019-01-21T18:20:23.413Z,37.67
2019-01-21T18:23:28.392Z,37.58
2019-01-21T18:26:46.842Z,37.05
2019-01-21T18:29:33.357Z,39.67
2019-01-21T18:32:05.600Z,39.70
2019-01-21T18:34:38.641Z,30.70
2019-01-21T18:37:28.719Z,39.78
2019-01-21T18:39:45.418Z,38.35
2019-01-21T18:42:14.715Z,41.00
2019-01-21T18:44:48.596Z,40.50
2019-01-21T18:47:17.836Z,41.37
2019-01-21T18:49:48.847Z,41.30
2019-01-21T18:52:18.060Z,39.98
2019-01-21T18:54:47.798Z,41.08
2019-01-21T18:57:17.093Z,42.62
2019-01-21T18:59:46.504Z,46.20
2019-01-21T19:02:23.002Z,43.85
2019-01-21T19:04:54.424Z,45.08
2019-01-21T19:07:28.270Z,44.80
2019-01-21T19:10:00.324Z,44.93
2019-01-21T19:12:29.523Z,45.83
2019-01-21T19:14:58.765Z,45.58
2019-01-21T19:17:27.934Z,44.98
2019-01-21T19:19:57.091Z,45.05
2019-01-21T19:22:26.348Z,43.50
2019-01-21T19:24:55.565Z,44.58
2019-01-21T19:27:24.953Z,48.87
2019-01-21T19:29:54.285Z,45.50
2019-01-21T19:32:23.453Z,47.85
2019-01-21T19:34:52.703Z,46.30
2019-01-21T19:37:21.925Z,39.33
2019-01-21T19:39:51.346Z,42.95
2019-01-21T19:42:20.635Z,39.63
2019-01-21T19:44:49.812Z,41.02
2019-01-21T19:47:19.122Z,55.88
2019-01-21T19:49:48.289Z,41.53
2019-01-21T19:52:17.597Z,41.33
2019-01-21T19:54:46.864Z,40.95
2019-01-21T19:57:16.125Z,41.28
2019-01-21T19:59:45.309Z,43.35
2019-01-21T20:02:15.800Z,41.65
2019-01-21T20:04:44.950Z,41.92
2019-01-21T20:07:14.440Z,40.38
2019-01-21T20:09:43.695Z,42.27
2019-01-21T20:12:14.283Z,41.58
2019-01-21T20:14:43.427Z,40.92
2019-01-21T20:17:12.720Z,40.03
2019-01-21T20:19:41.983Z,39.23
2019-01-21T20:22:11.398Z,40.35
2019-01-21T20:24:40.640Z,39.60
2019-01-21T20:27:09.892Z,42.48
2019-01-21T20:29:39.079Z,40.88
2019-01-21T20:32:08.429Z,42.55
2019-01-21T20:34:37.641Z,42.00
2019-01-21T20:37:08.849Z,42.50
2019-01-21T20:39:38.048Z,44.38
2019-01-21T20:42:07.295Z,42.38
2019-01-21T20:44:36.618Z,41.37
2019-01-21T20:47:05.743Z,40.73
2019-01-21T20:49:34.911Z,40.48
2019-01-21T20:52:04.072Z,42.17
2019-01-21T20:54:33.315Z,41.68
2019-01-21T20:57:02.624Z,42.65
2019-01-21T20:59:31.831Z,41.98
2019-01-21T21:02:00.972Z,42.43
2019-01-21T21:04:30.249Z,43.42
2019-01-21T21:06:59.391Z,42.55
2019-01-21T21:09:28.633Z,43.25
2019-01-21T21:11:57.695Z,43.35
2019-01-21T21:14:27.608Z,43.30
2019-01-21T21:16:56.700Z,43.68
2019-01-21T21:19:25.827Z,44.80
2019-01-21T21:21:54.931Z,43.48
2019-01-21T21:24:24.217Z,43.10
2019-01-21T21:26:54.823Z,44.25
2019-01-21T21:29:23.968Z,43.70
2019-01-21T21:31:53.030Z,43.70
2019-01-21T21:34:22.282Z,44.23
2019-01-21T21:36:51.429Z,43.28
2019-01-21T21:39:20.613Z,43.17
2019-01-21T21:41:49.689Z,44.05
2019-01-21T21:44:19.147Z,45.08
2019-01-21T21:46:48.234Z,43.10
2019-01-21T21:49:17.331Z,43.87
2019-01-21T21:51:46.412Z,43.10
2019-01-21T21:54:15.568Z,44.55
2019-01-21T21:56:44.940Z,43.48
2019-01-21T21:59:14.379Z,44.25
2019-01-21T22:01:43.525Z,43.10
2019-01-21T22:04:12.668Z,43.13
2019-01-21T22:06:41.898Z,42.67
2019-01-21T22:09:10.983Z,43.08
2019-01-21T22:11:40.424Z,43.33
2019-01-21T22:14:09.435Z,42.10
2019-01-21T22:16:38.540Z,42.83
2019-01-21T22:19:07.638Z,41.95
2019-01-21T22:21:36.938Z,42.45
2019-01-21T22:24:06.018Z,41.30
2019-01-21T22:26:35.181Z,41.37
2019-01-21T22:29:04.277Z,41.00
2019-01-21T22:31:34.057Z,42.78
2019-01-21T22:34:03.189Z,42.40
2019-01-21T22:36:32.308Z,40.03
2019-01-21T22:39:01.461Z,41.10
2019-01-21T22:41:30.650Z,38.63
2019-01-21T22:43:59.794Z,39.58
2019-01-21T22:46:29.602Z,38.30
2019-01-21T22:48:58.706Z,37.60
2019-01-21T22:51:27.835Z,37.33
2019-01-21T22:53:56.999Z,35.52
2019-01-21T22:56:26.103Z,34.80
2019-01-21T22:58:55.331Z,34.92
2019-01-21T23:01:27.354Z,33.88
2019-01-21T23:03:56.570Z,34.50
2019-01-21T23:06:25.775Z,33.50
2019-01-21T23:08:56.574Z,33.90
2019-01-21T23:11:27.225Z,33.18
2019-01-21T23:13:56.459Z,32.78
2019-01-21T23:16:25.513Z,33.95
2019-01-21T23:18:54.673Z,33.73
2019-01-21T23:21:23.749Z,35.25
2019-01-21T23:23:52.848Z,34.63
2019-01-21T23:26:22.007Z,35.25
2019-01-21T23:28:51.264Z,37.48
2019-01-21T23:31:20.514Z,34.90
2019-01-21T23:33:49.605Z,36.10
2019-01-21T23:36:18.783Z,35.55
2019-01-21T23:38:47.913Z,35.50
2019-01-21T23:41:17.533Z,35.30
2019-01-21T23:43:46.657Z,35.98
2019-01-21T23:46:16.046Z,33.42
2019-01-21T23:48:45.110Z,34.60
2019-01-21T23:51:14.278Z,34.85
2019-01-21T23:53:43.345Z,37.28
2019-01-21T23:56:12.423Z,34.78
2019-01-21T23:58:41.533Z,34.13
